createdAt,value
2019-04-03T00:04:57.799Z,8.60
2019-04-03T00:10:01.784Z,8.43
2019-04-03T00:15:06.471Z,7.30
2019-04-03T00:25:13.126Z,5.92
2019-04-03T00:30:16.946Z,5.47
2019-04-03T00:35:23.205Z,5.10
2019-04-03T00:40:26.429Z,5.08
2019-04-03T00:45:30.211Z,6.00
2019-04-03T00:50:33.922Z,6.72
2019-04-03T00:55:37.696Z,6.80
2019-04-03T01:00:41.688Z,5.83
2019-04-03T01:05:45.473Z,5.80
2019-04-03T01:10:49.627Z,4.97
2019-04-03T01:15:53.647Z,6.33
2019-04-03T01:20:57.662Z,5.17
2019-04-03T01:26:01.647Z,5.63
2019-04-03T01:31:05.378Z,5.33
2019-04-03T01:36:09.527Z,6.30
2019-04-03T01:41:13.743Z,7.25
2019-04-03T01:46:18.187Z,5.72
2019-04-03T01:51:21.960Z,6.47
2019-04-03T01:56:26.002Z,6.53
2019-04-03T02:01:30.110Z,6.75
2019-04-03T02:06:34.111Z,8.33
2019-04-03T02:11:38.342Z,8.57
2019-04-03T02:16:42.665Z,9.13
2019-04-03T02:21:46.434Z,9.03
2019-04-03T02:26:50.686Z,7.70
2019-04-03T02:31:54.435Z,7.80
2019-04-03T02:36:58.950Z,7.57
2019-04-03T02:47:06.590Z,6.83
2019-04-03T02:52:10.403Z,6.33
2019-04-03T02:57:17.369Z,6.63
2019-04-03T03:02:20.167Z,6.95
2019-04-03T03:07:24.582Z,6.87
2019-04-03T03:12:28.734Z,6.95
2019-04-03T03:17:32.870Z,5.10
2019-04-03T03:22:36.847Z,5.63
2019-04-03T03:27:42.033Z,6.37
2019-04-03T03:32:46.355Z,8.78
2019-04-03T03:37:50.770Z,7.07
2019-04-03T03:42:54.672Z,6.45
2019-04-03T03:47:59.088Z,6.20
2019-04-03T03:53:02.913Z,6.03
2019-04-03T03:58:11.078Z,7.27
2019-04-03T04:03:12.213Z,6.97
2019-04-03T04:08:16.167Z,7.07
2019-04-03T04:13:19.935Z,6.53
2019-04-03T04:18:24.909Z,8.33
2019-04-03T04:23:29.313Z,8.45
2019-04-03T04:28:33.136Z,8.18
2019-04-03T04:33:37.014Z,9.20
2019-04-03T04:38:41.011Z,9.60
2019-04-03T04:43:45.077Z,8.60
2019-04-03T04:48:51.305Z,9.20
2019-04-03T04:53:54.856Z,11.12
2019-04-03T04:58:58.811Z,9.80
2019-04-03T05:04:03.373Z,11.03
2019-04-03T05:09:07.290Z,12.03
2019-04-03T05:14:11.026Z,10.63
2019-04-03T05:19:18.497Z,14.93
2019-04-03T05:24:20.369Z,14.90
2019-04-03T05:29:24.102Z,16.80
2019-04-03T05:34:27.938Z,16.42
2019-04-03T05:39:31.767Z,14.37
2019-04-03T05:44:36.202Z,17.47
2019-04-03T05:49:40.047Z,17.02
2019-04-03T05:54:45.014Z,13.23
2019-04-03T05:59:58.631Z,12.07
2019-04-03T06:04:54.661Z,15.32
2019-04-03T06:09:59.160Z,17.17
2019-04-03T06:15:03.330Z,15.35
2019-04-03T06:20:10.354Z,14.03
2019-04-03T06:25:13.970Z,14.28
2019-04-03T06:30:18.392Z,15.50
2019-04-03T06:40:26.770Z,16.20
2019-04-03T06:50:33.758Z,13.83
2019-04-03T06:55:37.993Z,14.83
2019-04-03T07:00:42.493Z,14.65
2019-04-03T07:10:54.947Z,14.87
2019-04-03T07:15:56.866Z,14.38
2019-04-03T07:21:01.211Z,15.75
2019-04-03T07:26:05.539Z,12.53
2019-04-03T07:31:10.700Z,10.82
2019-04-03T07:36:14.953Z,13.75
2019-04-03T07:41:18.723Z,10.68
2019-04-03T07:46:22.787Z,10.37
2019-04-03T07:51:26.687Z,12.53
2019-04-03T07:56:30.728Z,10.60
2019-04-03T08:01:34.767Z,13.63
2019-04-03T08:06:38.874Z,12.07
2019-04-03T08:11:44.414Z,13.67
2019-04-03T08:16:48.828Z,13.40
2019-04-03T08:21:53.111Z,13.40
2019-04-03T08:26:56.893Z,14.43
2019-04-03T08:32:00.620Z,13.20
2019-04-03T08:37:04.370Z,14.50
2019-04-03T08:42:08.154Z,14.80
2019-04-03T08:47:14.306Z,15.40
2019-04-03T08:52:17.920Z,15.72
2019-04-03T08:57:21.711Z,13.70
2019-04-03T09:02:25.515Z,11.18
2019-04-03T09:07:29.289Z,11.07
2019-04-03T09:12:33.289Z,10.13
2019-04-03T09:17:37.624Z,10.60
2019-04-03T09:22:41.743Z,11.33
2019-04-03T09:27:45.533Z,8.83
2019-04-03T09:32:49.763Z,9.17
2019-04-03T09:37:53.855Z,9.65
2019-04-03T09:42:58.634Z,11.00
2019-04-03T09:48:07.761Z,9.43
2019-04-03T09:53:11.651Z,9.80
2019-04-03T09:58:15.419Z,10.97
2019-04-03T10:03:20.852Z,12.47
2019-04-03T10:08:24.866Z,10.18
2019-04-03T10:13:29.142Z,8.93
2019-04-03T10:18:36.441Z,9.05
2019-04-03T10:23:40.526Z,11.88
2019-04-03T10:28:46.992Z,11.28
2019-04-03T10:33:49.832Z,8.68
2019-04-03T10:38:53.958Z,11.18
2019-04-03T10:43:58.183Z,11.20
2019-04-03T10:49:02.012Z,11.20
2019-04-03T10:54:05.835Z,10.07
2019-04-03T10:59:12.999Z,10.97
2019-04-03T11:04:15.408Z,11.38
2019-04-03T11:09:19.155Z,10.87
2019-04-03T11:14:23.015Z,11.28
2019-04-03T11:19:27.069Z,10.07
2019-04-03T11:24:30.859Z,9.37
2019-04-03T11:29:34.659Z,9.60
2019-04-03T11:34:39.109Z,10.63
2019-04-03T11:39:44.091Z,9.60
2019-04-03T11:44:48.565Z,9.75
2019-04-03T11:49:53.248Z,9.68
2019-04-03T11:54:57.459Z,9.18
2019-04-03T12:00:01.283Z,8.98
2019-04-03T12:05:06.115Z,8.37
2019-04-03T12:10:11.395Z,8.58
2019-04-03T12:15:16.416Z,8.13
2019-04-03T12:20:20.580Z,7.35
2019-04-03T12:25:25.247Z,7.20
